sensor_id;sensor_type;location;lat;lon;timestamp;pressure;altitude;pressure_sealevel;temperature;humidity
79645;BME280;69117;47.148;18.954;2023-08-17T00:01:01;100833.34;;;19.38;100.00
79645;BME280;69117;47.148;18.954;2023-08-17T00:04:02;100828.63;;;19.40;100.00
79645;BME280;69117;47.148;18.954;2023-08-17T00:07:04;100834.22;;;19.45;100.00
79645;BME280;69117;47.148;18.954;2023-08-17T00:10:06;100831.09;;;19.41;100.00
79645;BME280;69117;47.148;18.954;2023-08-17T00:13:08;100831.16;;;19.48;100.00
79645;BME280;69117;47.148;18.954;2023-08-17T00:16:10;100834.50;;;19.50;100.00
79645;BME280;69117;47.148;18.954;2023-08-17T00:19:11;100819.44;;;19.49;100.00
79645;BME280;69117;47.148;18.954;2023-08-17T00:22:15;100815.56;;;19.52;100.00
79645;BME280;69117;47.148;18.954;2023-08-17T00:25:17;100818.63;;;19.49;100.00
79645;BME280;69117;47.148;18.954;2023-08-17T00:28:19;100816.50;;;19.44;100.00
79645;BME280;69117;47.148;18.954;2023-08-17T00:31:20;100818.78;;;19.47;100.00
79645;BME280;69117;47.148;18.954;2023-08-17T00:34:22;100808.84;;;19.41;100.00
79645;BME280;69117;47.148;18.954;2023-08-17T00:37:24;100813.09;;;19.35;100.00
79645;BME280;69117;47.148;18.954;2023-08-17T00:40:26;100824.84;;;19.34;100.00
79645;BME280;69117;47.148;18.954;2023-08-17T00:43:27;100816.31;;;19.45;100.00
79645;BME280;69117;47.148;18.954;2023-08-17T00:46:30;100809.09;;;19.46;100.00
79645;BME280;69117;47.148;18.954;2023-08-17T00:49:32;100804.13;;;19.43;100.00
79645;BME280;69117;47.148;18.954;2023-08-17T00:52:34;100812.22;;;19.50;100.00
79645;BME280;69117;47.148;18.954;2023-08-17T00:55:36;100812.50;;;19.55;100.00
79645;BME280;69117;47.148;18.954;2023-08-17T00:58:37;100816.00;;;19.55;100.00
79645;BME280;69117;47.148;18.954;2023-08-17T01:01:39;100823.66;;;19.58;100.00
79645;BME280;69117;47.148;18.954;2023-08-17T01:04:41;100822.34;;;19.54;100.00
79645;BME280;69117;47.148;18.954;2023-08-17T01:07:42;100825.31;;;19.38;100.00
79645;BME280;69117;47.148;18.954;2023-08-17T01:10:55;100820.59;;;19.40;100.00
79645;BME280;69117;47.148;18.954;2023-08-17T01:17:29;100839.47;;;19.32;100.00
79645;BME280;69117;47.148;18.954;2023-08-17T01:20:33;100834.94;;;19.32;100.00
79645;BME280;69117;47.148;18.954;2023-08-17T01:23:35;100837.06;;;19.37;100.00
79645;BME280;69117;47.148;18.954;2023-08-17T01:26:37;100834.28;;;19.30;100.00
79645;BME280;69117;47.148;18.954;2023-08-17T01:29:39;100825.06;;;19.18;100.00
79645;BME280;69117;47.148;18.954;2023-08-17T01:32:54;100828.34;;;19.13;100.00
79645;BME280;69117;47.148;18.954;2023-08-17T01:39:07;100819.38;;;19.06;100.00
79645;BME280;69117;47.148;18.954;2023-08-17T01:42:10;100824.38;;;19.09;100.00
79645;BME280;69117;47.148;18.954;2023-08-17T01:45:13;100815.84;;;19.20;100.00
79645;BME280;69117;47.148;18.954;2023-08-17T01:48:15;100809.91;;;19.25;100.00
79645;BME280;69117;47.148;18.954;2023-08-17T01:51:18;100812.84;;;19.30;100.00
79645;BME280;69117;47.148;18.954;2023-08-17T01:54:21;100829.91;;;19.44;100.00
79645;BME280;69117;47.148;18.954;2023-08-17T01:57:23;100814.84;;;19.43;100.00
79645;BME280;69117;47.148;18.954;2023-08-17T02:00:25;100817.00;;;19.54;100.00
79645;BME280;69117;47.148;18.954;2023-08-17T02:03:26;100824.47;;;19.59;100.00
79645;BME280;69117;47.148;18.954;2023-08-17T02:06:30;100809.94;;;19.47;100.00
79645;BME280;69117;47.148;18.954;2023-08-17T02:09:32;100822.44;;;19.61;100.00
79645;BME280;69117;47.148;18.954;2023-08-17T02:12:33;100825.22;;;19.67;100.00
79645;BME280;69117;47.148;18.954;2023-08-17T02:15:41;100820.59;;;19.61;100.00
79645;BME280;69117;47.148;18.954;2023-08-17T02:18:42;100827.34;;;19.57;100.00
79645;BME280;69117;47.148;18.954;2023-08-17T02:21:44;100816.63;;;19.57;100.00
79645;BME280;69117;47.148;18.954;2023-08-17T02:24:46;100813.09;;;19.57;100.00
79645;BME280;69117;47.148;18.954;2023-08-17T02:27:48;100813.44;;;19.47;100.00
79645;BME280;69117;47.148;18.954;2023-08-17T02:30:55;100809.59;;;19.56;100.00
79645;BME280;69117;47.148;18.954;2023-08-17T02:33:57;100815.34;;;19.53;100.00
79645;BME280;69117;47.148;18.954;2023-08-17T02:37:06;100814.13;;;19.56;100.00
79645;BME280;69117;47.148;18.954;2023-08-17T02:40:08;100812.22;;;19.50;100.00
79645;BME280;69117;47.148;18.954;2023-08-17T02:43:10;100809.34;;;19.51;100.00
79645;BME280;69117;47.148;18.954;2023-08-17T02:46:11;100816.94;;;19.48;100.00
79645;BME280;69117;47.148;18.954;2023-08-17T02:49:13;100825.03;;;19.54;100.00
79645;BME280;69117;47.148;18.954;2023-08-17T02:52:15;100814.91;;;19.50;100.00
79645;BME280;69117;47.148;18.954;2023-08-17T02:55:16;100811.41;;;19.49;100.00
79645;BME280;69117;47.148;18.954;2023-08-17T02:58:18;100808.72;;;19.49;100.00
79645;BME280;69117;47.148;18.954;2023-08-17T03:01:20;100797.91;;;19.42;100.00
79645;BME280;69117;47.148;18.954;2023-08-17T03:04:22;100795.81;;;19.38;100.00
79645;BME280;69117;47.148;18.954;2023-08-17T03:07:24;100798.56;;;19.23;100.00
79645;BME280;69117;47.148;18.954;2023-08-17T03:10:26;100793.31;;;19.15;100.00
79645;BME280;69117;47.148;18.954;2023-08-17T03:13:28;100787.50;;;19.11;100.00
79645;BME280;69117;47.148;18.954;2023-08-17T03:16:29;100799.53;;;19.15;100.00
79645;BME280;69117;47.148;18.954;2023-08-17T03:19:32;100805.25;;;19.12;100.00
79645;BME280;69117;47.148;18.954;2023-08-17T03:22:34;100804.69;;;19.17;100.00
79645;BME280;69117;47.148;18.954;2023-08-17T03:25:36;100809.22;;;19.16;100.00
79645;BME280;69117;47.148;18.954;2023-08-17T03:28:39;100800.16;;;19.17;100.00
79645;BME280;69117;47.148;18.954;2023-08-17T03:31:40;100798.50;;;19.16;100.00
79645;BME280;69117;47.148;18.954;2023-08-17T03:34:42;100800.78;;;19.19;100.00
79645;BME280;69117;47.148;18.954;2023-08-17T03:37:44;100806.59;;;19.23;100.00
79645;BME280;69117;47.148;18.954;2023-08-17T03:40:47;100792.00;;;19.26;100.00
79645;BME280;69117;47.148;18.954;2023-08-17T03:43:49;100805.91;;;19.36;100.00
79645;BME280;69117;47.148;18.954;2023-08-17T03:46:50;100810.31;;;19.43;100.00
79645;BME280;69117;47.148;18.954;2023-08-17T03:49:52;100813.66;;;19.45;100.00
79645;BME280;69117;47.148;18.954;2023-08-17T03:52:54;100801.25;;;19.44;100.00
79645;BME280;69117;47.148;18.954;2023-08-17T03:55:55;100803.75;;;19.46;100.00
79645;BME280;69117;47.148;18.954;2023-08-17T03:58:58;100812.88;;;19.52;100.00
79645;BME280;69117;47.148;18.954;2023-08-17T04:02:00;100806.09;;;19.56;100.00
79645;BME280;69117;47.148;18.954;2023-08-17T04:05:01;100813.75;;;19.59;100.00
79645;BME280;69117;47.148;18.954;2023-08-17T04:08:03;100812.94;;;19.58;100.00
79645;BME280;69117;47.148;18.954;2023-08-17T04:11:05;100814.09;;;19.49;100.00
79645;BME280;69117;47.148;18.954;2023-08-17T04:14:07;100811.63;;;19.54;100.00
79645;BME280;69117;47.148;18.954;2023-08-17T04:17:11;100818.81;;;19.68;100.00
79645;BME280;69117;47.148;18.954;2023-08-17T04:20:13;100822.16;;;19.71;100.00
79645;BME280;69117;47.148;18.954;2023-08-17T04:23:15;100824.22;;;19.75;100.00
79645;BME280;69117;47.148;18.954;2023-08-17T04:26:16;100827.34;;;19.79;100.00
79645;BME280;69117;47.148;18.954;2023-08-17T04:29:18;100822.25;;;19.84;100.00
79645;BME280;69117;47.148;18.954;2023-08-17T04:32:19;100819.31;;;19.79;100.00
79645;BME280;69117;47.148;18.954;2023-08-17T04:35:21;100819.31;;;19.79;100.00
79645;BME280;69117;47.148;18.954;2023-08-17T04:38:23;100813.81;;;19.87;100.00
79645;BME280;69117;47.148;18.954;2023-08-17T04:41:25;100826.84;;;19.90;100.00
79645;BME280;69117;47.148;18.954;2023-08-17T04:44:26;100823.16;;;19.91;100.00
79645;BME280;69117;47.148;18.954;2023-08-17T04:47:28;100812.44;;;19.91;100.00
79645;BME280;69117;47.148;18.954;2023-08-17T04:50:30;100810.34;;;19.93;100.00
79645;BME280;69117;47.148;18.954;2023-08-17T04:53:31;100814.34;;;19.97;100.00
79645;BME280;69117;47.148;18.954;2023-08-17T04:56:33;100815.97;;;19.98;100.00
79645;BME280;69117;47.148;18.954;2023-08-17T04:59:35;100824.47;;;20.02;100.00
79645;BME280;69117;47.148;18.954;2023-08-17T05:02:37;100827.88;;;20.17;100.00
79645;BME280;69117;47.148;18.954;2023-08-17T05:05:39;100832.88;;;20.27;100.00
79645;BME280;69117;47.148;18.954;2023-08-17T05:08:40;100836.06;;;20.37;100.00
79645;BME280;69117;47.148;18.954;2023-08-17T05:11:42;100833.22;;;20.45;100.00
79645;BME280;69117;47.148;18.954;2023-08-17T05:14:43;100825.59;;;20.49;100.00
79645;BME280;69117;47.148;18.954;2023-08-17T05:17:45;100819.28;;;20.56;100.00
79645;BME280;69117;47.148;18.954;2023-08-17T05:20:47;100818.25;;;20.57;100.00
79645;BME280;69117;47.148;18.954;2023-08-17T05:23:48;100828.00;;;20.65;100.00
79645;BME280;69117;47.148;18.954;2023-08-17T05:26:50;100822.44;;;20.67;100.00
79645;BME280;69117;47.148;18.954;2023-08-17T05:29:51;100831.19;;;20.82;100.00
79645;BME280;69117;47.148;18.954;2023-08-17T05:32:53;100826.38;;;20.71;100.00
79645;BME280;69117;47.148;18.954;2023-08-17T05:35:55;100829.91;;;20.78;100.00
79645;BME280;69117;47.148;18.954;2023-08-17T05:38:56;100837.81;;;20.86;100.00
79645;BME280;69117;47.148;18.954;2023-08-17T05:41:58;100827.56;;;21.03;100.00
79645;BME280;69117;47.148;18.954;2023-08-17T05:45:00;100825.88;;;21.02;100.00
79645;BME280;69117;47.148;18.954;2023-08-17T05:48:02;100818.28;;;21.12;100.00
79645;BME280;69117;47.148;18.954;2023-08-17T05:51:04;100825.94;;;21.15;100.00
79645;BME280;69117;47.148;18.954;2023-08-17T05:54:05;100805.03;;;21.17;100.00
79645;BME280;69117;47.148;18.954;2023-08-17T05:57:07;100813.56;;;21.27;100.00
79645;BME280;69117;47.148;18.954;2023-08-17T06:00:09;100813.19;;;21.37;100.00
79645;BME280;69117;47.148;18.954;2023-08-17T06:03:14;100816.09;;;21.56;100.00
79645;BME280;69117;47.148;18.954;2023-08-17T06:06:15;100822.34;;;21.69;100.00
79645;BME280;69117;47.148;18.954;2023-08-17T06:09:17;100821.28;;;21.77;100.00
79645;BME280;69117;47.148;18.954;2023-08-17T06:12:19;100817.34;;;21.60;100.00
79645;BME280;69117;47.148;18.954;2023-08-17T06:15:21;100811.56;;;21.83;100.00
79645;BME280;69117;47.148;18.954;2023-08-17T06:18:23;100813.22;;;22.17;100.00
79645;BME280;69117;47.148;18.954;2023-08-17T06:21:24;100808.22;;;22.14;100.00
79645;BME280;69117;47.148;18.954;2023-08-17T06:24:26;100817.78;;;22.10;100.00
79645;BME280;69117;47.148;18.954;2023-08-17T06:27:28;100809.09;;;21.88;100.00
79645;BME280;69117;47.148;18.954;2023-08-17T06:30:30;100803.28;;;22.04;100.00
79645;BME280;69117;47.148;18.954;2023-08-17T06:33:37;100804.31;;;22.23;100.00
79645;BME280;69117;47.148;18.954;2023-08-17T06:36:39;100805.75;;;22.32;100.00
79645;BME280;69117;47.148;18.954;2023-08-17T06:39:41;100808.69;;;22.24;100.00
79645;BME280;69117;47.148;18.954;2023-08-17T06:42:42;100804.91;;;22.32;100.00
79645;BME280;69117;47.148;18.954;2023-08-17T06:45:44;100812.53;;;22.55;100.00
79645;BME280;69117;47.148;18.954;2023-08-17T06:48:46;100812.72;;;22.67;100.00
79645;BME280;69117;47.148;18.954;2023-08-17T06:51:48;100817.66;;;22.63;100.00
79645;BME280;69117;47.148;18.954;2023-08-17T06:54:51;100822.13;;;22.96;100.00
79645;BME280;69117;47.148;18.954;2023-08-17T06:57:52;100825.81;;;23.08;100.00
79645;BME280;69117;47.148;18.954;2023-08-17T07:00:54;100824.13;;;23.14;100.00
79645;BME280;69117;47.148;18.954;2023-08-17T07:03:56;100830.63;;;22.93;100.00
79645;BME280;69117;47.148;18.954;2023-08-17T07:06:58;100824.16;;;23.39;100.00
79645;BME280;69117;47.148;18.954;2023-08-17T07:10:01;100832.28;;;23.95;100.00
79645;BME280;69117;47.148;18.954;2023-08-17T07:13:03;100833.22;;;24.33;100.00
79645;BME280;69117;47.148;18.954;2023-08-17T07:16:05;100830.19;;;24.96;100.00
79645;BME280;69117;47.148;18.954;2023-08-17T07:19:06;100830.56;;;24.51;100.00
79645;BME280;69117;47.148;18.954;2023-08-17T07:22:08;100833.09;;;24.46;100.00
79645;BME280;69117;47.148;18.954;2023-08-17T07:25:09;100828.66;;;24.88;100.00
79645;BME280;69117;47.148;18.954;2023-08-17T07:28:11;100833.75;;;25.15;100.00
79645;BME280;69117;47.148;18.954;2023-08-17T07:31:13;100830.69;;;25.23;100.00
79645;BME280;69117;47.148;18.954;2023-08-17T07:34:15;100833.19;;;25.67;100.00
79645;BME280;69117;47.148;18.954;2023-08-17T07:37:21;100833.72;;;26.11;100.00
79645;BME280;69117;47.148;18.954;2023-08-17T07:40:23;100833.28;;;25.90;100.00
79645;BME280;69117;47.148;18.954;2023-08-17T07:43:25;100829.84;;;25.95;100.00
79645;BME280;69117;47.148;18.954;2023-08-17T07:46:27;100836.34;;;25.52;100.00
79645;BME280;69117;47.148;18.954;2023-08-17T07:49:28;100834.13;;;25.00;100.00
79645;BME280;69117;47.148;18.954;2023-08-17T07:52:33;100832.72;;;25.28;100.00
79645;BME280;69117;47.148;18.954;2023-08-17T07:55:35;100843.50;;;25.88;100.00
79645;BME280;69117;47.148;18.954;2023-08-17T07:58:41;100840.19;;;25.44;100.00
79645;BME280;69117;47.148;18.954;2023-08-17T08:01:43;100833.16;;;26.09;100.00
79645;BME280;69117;47.148;18.954;2023-08-17T08:04:45;100824.19;;;26.32;100.00
79645;BME280;69117;47.148;18.954;2023-08-17T08:07:46;100836.88;;;26.78;100.00
79645;BME280;69117;47.148;18.954;2023-08-17T08:10:48;100835.84;;;25.97;100.00
79645;BME280;69117;47.148;18.954;2023-08-17T08:13:50;100835.69;;;25.80;100.00
79645;BME280;69117;47.148;18.954;2023-08-17T08:16:51;100826.53;;;26.40;100.00
79645;BME280;69117;47.148;18.954;2023-08-17T08:19:53;100833.41;;;25.65;100.00
79645;BME280;69117;47.148;18.954;2023-08-17T08:22:55;100824.31;;;26.01;100.00
79645;BME280;69117;47.148;18.954;2023-08-17T08:25:57;100821.00;;;26.23;100.00
79645;BME280;69117;47.148;18.954;2023-08-17T08:29:00;100817.47;;;26.58;100.00
79645;BME280;69117;47.148;18.954;2023-08-17T08:32:02;100820.81;;;27.62;100.00
79645;BME280;69117;47.148;18.954;2023-08-17T08:35:05;100818.81;;;27.12;100.00
79645;BME280;69117;47.148;18.954;2023-08-17T08:38:06;100815.28;;;27.40;100.00
79645;BME280;69117;47.148;18.954;2023-08-17T08:41:09;100825.00;;;27.36;100.00
79645;BME280;69117;47.148;18.954;2023-08-17T08:44:10;100826.16;;;27.57;100.00
79645;BME280;69117;47.148;18.954;2023-08-17T08:47:13;100820.69;;;26.83;100.00
79645;BME280;69117;47.148;18.954;2023-08-17T08:50:18;100815.28;;;27.74;100.00
79645;BME280;69117;47.148;18.954;2023-08-17T08:53:27;100815.47;;;28.57;100.00
79645;BME280;69117;47.148;18.954;2023-08-17T08:56:32;100804.50;;;28.74;100.00
79645;BME280;69117;47.148;18.954;2023-08-17T08:59:37;100812.06;;;28.67;100.00
79645;BME280;69117;47.148;18.954;2023-08-17T09:02:45;100813.91;;;29.10;100.00
79645;BME280;69117;47.148;18.954;2023-08-17T09:05:48;100816.91;;;29.36;100.00
79645;BME280;69117;47.148;18.954;2023-08-17T09:08:51;100811.31;;;29.80;100.00
79645;BME280;69117;47.148;18.954;2023-08-17T09:11:53;100806.03;;;29.09;100.00
79645;BME280;69117;47.148;18.954;2023-08-17T09:14:55;100800.78;;;29.02;100.00
79645;BME280;69117;47.148;18.954;2023-08-17T09:17:58;100803.50;;;29.94;100.00
79645;BME280;69117;47.148;18.954;2023-08-17T09:20:59;100803.88;;;28.89;89.07
79645;BME280;69117;47.148;18.954;2023-08-17T09:24:01;100794.63;;;29.44;85.04
79645;BME280;69117;47.148;18.954;2023-08-17T09:27:03;100796.00;;;30.11;85.53
79645;BME280;69117;47.148;18.954;2023-08-17T09:30:11;100791.88;;;29.39;81.19
79645;BME280;69117;47.148;18.954;2023-08-17T09:33:13;100793.66;;;29.23;83.46
79645;BME280;69117;47.148;18.954;2023-08-17T09:36:15;100793.81;;;29.11;84.83
79645;BME280;69117;47.148;18.954;2023-08-17T09:39:16;100795.03;;;29.58;82.56
79645;BME280;69117;47.148;18.954;2023-08-17T09:42:20;100782.06;;;28.84;78.09
79645;BME280;69117;47.148;18.954;2023-08-17T09:45:23;100793.91;;;29.21;80.66
79645;BME280;69117;47.148;18.954;2023-08-17T09:48:25;100784.47;;;28.58;80.99
79645;BME280;69117;47.148;18.954;2023-08-17T09:51:33;100783.22;;;29.15;80.09
79645;BME280;69117;47.148;18.954;2023-08-17T09:54:35;100781.94;;;29.22;75.06
79645;BME280;69117;47.148;18.954;2023-08-17T09:57:37;100777.22;;;29.77;75.66
79645;BME280;69117;47.148;18.954;2023-08-17T10:00:43;100782.66;;;29.72;73.97
79645;BME280;69117;47.148;18.954;2023-08-17T10:03:52;100775.06;;;30.22;76.60
79645;BME280;69117;47.148;18.954;2023-08-17T10:07:03;100769.72;;;30.42;73.48
79645;BME280;69117;47.148;18.954;2023-08-17T10:10:07;100769.63;;;29.79;73.43
79645;BME280;69117;47.148;18.954;2023-08-17T10:19:30;100766.13;;;28.70;75.73
79645;BME280;69117;47.148;18.954;2023-08-17T10:23:12;100764.28;;;28.76;79.80
79645;BME280;69117;47.148;18.954;2023-08-17T10:26:16;100764.03;;;30.01;73.83
79645;BME280;69117;47.148;18.954;2023-08-17T10:29:20;100766.78;;;30.06;71.05
79645;BME280;69117;47.148;18.954;2023-08-17T10:32:24;100766.81;;;30.11;69.46
79645;BME280;69117;47.148;18.954;2023-08-17T10:35:27;100762.53;;;30.94;66.89
79645;BME280;69117;47.148;18.954;2023-08-17T10:38:28;100764.84;;;30.44;68.37
79645;BME280;69117;47.148;18.954;2023-08-17T10:41:30;100761.56;;;30.52;66.73
79645;BME280;69117;47.148;18.954;2023-08-17T10:44:45;100760.50;;;30.53;67.52
79645;BME280;69117;47.148;18.954;2023-08-17T10:47:47;100756.88;;;31.36;66.01
79645;BME280;69117;47.148;18.954;2023-08-17T10:51:00;100756.06;;;31.36;64.12
79645;BME280;69117;47.148;18.954;2023-08-17T10:54:03;100757.66;;;31.67;63.21
79645;BME280;69117;47.148;18.954;2023-08-17T10:57:35;100743.69;;;32.00;63.75
79645;BME280;69117;47.148;18.954;2023-08-17T11:00:38;100755.03;;;30.48;69.71
79645;BME280;69117;47.148;18.954;2023-08-17T11:03:41;100759.41;;;30.02;76.27
79645;BME280;69117;47.148;18.954;2023-08-17T11:06:44;100753.34;;;30.32;71.13
79645;BME280;69117;47.148;18.954;2023-08-17T11:09:46;100750.44;;;30.69;70.32
79645;BME280;69117;47.148;18.954;2023-08-17T11:12:48;100745.41;;;31.60;64.13
79645;BME280;69117;47.148;18.954;2023-08-17T11:15:54;100741.09;;;32.39;67.67
79645;BME280;69117;47.148;18.954;2023-08-17T11:18:56;100743.47;;;31.24;66.12
79645;BME280;69117;47.148;18.954;2023-08-17T11:22:00;100746.81;;;29.90;72.62
79645;BME280;69117;47.148;18.954;2023-08-17T11:25:03;100725.94;;;30.79;72.55
79645;BME280;69117;47.148;18.954;2023-08-17T11:28:07;100737.84;;;30.48;72.97
79645;BME280;69117;47.148;18.954;2023-08-17T11:31:11;100730.03;;;30.19;74.00
79645;BME280;69117;47.148;18.954;2023-08-17T11:34:16;100725.09;;;30.06;69.79
79645;BME280;69117;47.148;18.954;2023-08-17T11:37:18;100739.31;;;29.65;74.14
79645;BME280;69117;47.148;18.954;2023-08-17T11:40:22;100735.88;;;30.33;71.76
79645;BME280;69117;47.148;18.954;2023-08-17T11:43:26;100734.97;;;31.31;67.78
79645;BME280;69117;47.148;18.954;2023-08-17T11:46:28;100727.31;;;30.92;67.29
79645;BME280;69117;47.148;18.954;2023-08-17T11:49:30;100728.44;;;31.53;68.40
79645;BME280;69117;47.148;18.954;2023-08-17T11:52:39;100723.84;;;32.93;63.64
79645;BME280;69117;47.148;18.954;2023-08-17T11:55:47;100723.50;;;31.80;66.06
79645;BME280;69117;47.148;18.954;2023-08-17T11:58:48;100727.78;;;32.12;65.26
79645;BME280;69117;47.148;18.954;2023-08-17T12:01:50;100723.63;;;32.25;64.14
79645;BME280;69117;47.148;18.954;2023-08-17T12:04:53;100724.50;;;30.56;67.05
79645;BME280;69117;47.148;18.954;2023-08-17T12:07:55;100716.25;;;29.46;72.04
79645;BME280;69117;47.148;18.954;2023-08-17T12:10:56;100723.94;;;29.22;78.65
79645;BME280;69117;47.148;18.954;2023-08-17T12:13:58;100711.59;;;30.31;73.93
79645;BME280;69117;47.148;18.954;2023-08-17T12:17:00;100720.47;;;29.32;72.24
79645;BME280;69117;47.148;18.954;2023-08-17T12:20:02;100722.59;;;28.97;76.61
79645;BME280;69117;47.148;18.954;2023-08-17T12:23:04;100712.41;;;28.83;86.52
79645;BME280;69117;47.148;18.954;2023-08-17T12:26:06;100717.75;;;28.72;83.66
79645;BME280;69117;47.148;18.954;2023-08-17T12:29:09;100716.50;;;28.58;89.34
79645;BME280;69117;47.148;18.954;2023-08-17T12:32:10;100703.59;;;28.26;83.74
79645;BME280;69117;47.148;18.954;2023-08-17T12:35:12;100714.38;;;29.14;86.37
79645;BME280;69117;47.148;18.954;2023-08-17T12:38:14;100703.50;;;29.52;73.91
79645;BME280;69117;47.148;18.954;2023-08-17T12:41:16;100703.25;;;29.58;78.90
79645;BME280;69117;47.148;18.954;2023-08-17T12:44:19;100697.06;;;29.31;78.38
79645;BME280;69117;47.148;18.954;2023-08-17T12:47:20;100690.41;;;29.16;75.77
79645;BME280;69117;47.148;18.954;2023-08-17T12:50:22;100695.84;;;29.11;80.28
79645;BME280;69117;47.148;18.954;2023-08-17T12:53:24;100689.53;;;28.79;87.47
79645;BME280;69117;47.148;18.954;2023-08-17T12:56:25;100677.16;;;28.98;81.04
79645;BME280;69117;47.148;18.954;2023-08-17T12:59:27;100676.09;;;29.63;79.00
79645;BME280;69117;47.148;18.954;2023-08-17T13:02:29;100674.47;;;29.67;78.55
79645;BME280;69117;47.148;18.954;2023-08-17T13:05:32;100676.13;;;29.69;74.40
79645;BME280;69117;47.148;18.954;2023-08-17T13:08:34;100667.44;;;29.77;75.73
79645;BME280;69117;47.148;18.954;2023-08-17T13:11:36;100666.50;;;29.61;76.76
79645;BME280;69117;47.148;18.954;2023-08-17T13:14:37;100666.59;;;29.34;75.87
79645;BME280;69117;47.148;18.954;2023-08-17T13:17:39;100665.59;;;28.81;79.04
79645;BME280;69117;47.148;18.954;2023-08-17T13:20:40;100658.09;;;28.39;82.24
79645;BME280;69117;47.148;18.954;2023-08-17T13:23:42;100658.25;;;28.32;82.61
79645;BME280;69117;47.148;18.954;2023-08-17T13:26:44;100655.19;;;28.01;84.55
79645;BME280;69117;47.148;18.954;2023-08-17T13:29:46;100656.66;;;27.70;86.22
79645;BME280;69117;47.148;18.954;2023-08-17T13:32:48;100666.03;;;27.79;90.16
79645;BME280;69117;47.148;18.954;2023-08-17T13:35:50;100664.00;;;27.70;91.80
79645;BME280;69117;47.148;18.954;2023-08-17T13:38:52;100659.19;;;27.77;92.74
79645;BME280;69117;47.148;18.954;2023-08-17T13:41:54;100658.09;;;27.95;91.86
79645;BME280;69117;47.148;18.954;2023-08-17T13:44:56;100658.72;;;28.02;89.96
79645;BME280;69117;47.148;18.954;2023-08-17T13:47:58;100652.47;;;28.01;91.66
79645;BME280;69117;47.148;18.954;2023-08-17T13:50:59;100653.28;;;28.02;92.21
79645;BME280;69117;47.148;18.954;2023-08-17T13:54:01;100665.53;;;27.82;100.00
79645;BME280;69117;47.148;18.954;2023-08-17T13:57:03;100665.56;;;26.98;100.00
79645;BME280;69117;47.148;18.954;2023-08-17T14:00:05;100688.25;;;24.27;100.00
79645;BME280;69117;47.148;18.954;2023-08-17T14:03:09;100678.59;;;24.00;100.00
79645;BME280;69117;47.148;18.954;2023-08-17T14:06:11;100660.81;;;23.74;100.00
79645;BME280;69117;47.148;18.954;2023-08-17T14:09:12;100660.16;;;23.79;100.00
79645;BME280;69117;47.148;18.954;2023-08-17T14:12:14;100658.78;;;23.70;100.00
79645;BME280;69117;47.148;18.954;2023-08-17T14:15:16;100661.09;;;23.66;100.00
79645;BME280;69117;47.148;18.954;2023-08-17T14:18:17;100653.63;;;23.87;100.00
79645;BME280;69117;47.148;18.954;2023-08-17T14:21:19;100658.56;;;23.71;100.00
79645;BME280;69117;47.148;18.954;2023-08-17T14:24:21;100667.34;;;24.22;100.00
79645;BME280;69117;47.148;18.954;2023-08-17T14:27:23;100667.03;;;24.30;100.00
79645;BME280;69117;47.148;18.954;2023-08-17T14:30:24;100666.16;;;24.66;100.00
79645;BME280;69117;47.148;18.954;2023-08-17T14:33:27;100655.97;;;25.34;100.00
79645;BME280;69117;47.148;18.954;2023-08-17T14:36:29;100651.56;;;25.09;100.00
79645;BME280;69117;47.148;18.954;2023-08-17T14:39:31;100636.41;;;25.20;100.00
79645;BME280;69117;47.148;18.954;2023-08-17T14:42:38;100639.13;;;25.32;100.00
79645;BME280;69117;47.148;18.954;2023-08-17T14:45:43;100648.69;;;26.79;100.00
79645;BME280;69117;47.148;18.954;2023-08-17T14:48:44;100638.53;;;27.54;100.00
79645;BME280;69117;47.148;18.954;2023-08-17T14:51:46;100634.72;;;28.65;100.00
79645;BME280;69117;47.148;18.954;2023-08-17T14:54:49;100627.53;;;29.13;100.00
79645;BME280;69117;47.148;18.954;2023-08-17T14:57:51;100630.53;;;29.16;100.00
79645;BME280;69117;47.148;18.954;2023-08-17T15:00:52;100637.22;;;29.41;100.00
79645;BME280;69117;47.148;18.954;2023-08-17T15:03:54;100639.44;;;29.07;100.00
79645;BME280;69117;47.148;18.954;2023-08-17T15:06:56;100642.16;;;28.25;100.00
79645;BME280;69117;47.148;18.954;2023-08-17T15:09:57;100636.28;;;28.88;100.00
79645;BME280;69117;47.148;18.954;2023-08-17T15:12:59;100628.28;;;29.03;100.00
79645;BME280;69117;47.148;18.954;2023-08-17T15:16:01;100629.91;;;28.45;100.00
79645;BME280;69117;47.148;18.954;2023-08-17T15:19:04;100634.38;;;28.88;100.00
79645;BME280;69117;47.148;18.954;2023-08-17T15:22:08;100617.56;;;27.71;100.00
79645;BME280;69117;47.148;18.954;2023-08-17T15:25:16;100622.53;;;27.96;100.00
79645;BME280;69117;47.148;18.954;2023-08-17T15:28:18;100627.53;;;28.81;100.00
79645;BME280;69117;47.148;18.954;2023-08-17T15:31:20;100619.19;;;28.60;100.00
79645;BME280;69117;47.148;18.954;2023-08-17T15:34:22;100619.41;;;28.59;100.00
79645;BME280;69117;47.148;18.954;2023-08-17T15:37:24;100617.63;;;28.69;100.00
79645;BME280;69117;47.148;18.954;2023-08-17T15:40:26;100618.66;;;28.63;100.00
79645;BME280;69117;47.148;18.954;2023-08-17T15:43:27;100615.78;;;28.26;100.00
79645;BME280;69117;47.148;18.954;2023-08-17T15:46:29;100613.91;;;26.31;100.00